Details From UTTT - Yuzhny
To UTSB - Bukhara
Flight Number -
Tags Generated
Created
Modified
Stats Distance 236 nm / 437 km
Max Altitude 0 ft / 0 m
Waypoints 3
Social Downloads 0
Likes 0
Share VATSIM

Download

Looking for another format? Having issues loading an existing format? Contact us
Advertisement - Login to hide

Notes

Generated

Route

UTTT UTSB UTSB

ID Type Via Altitude Latitude Longitude Leg Dist Tot Dist Heading (true) Name
O UTTT APT - 0 ft / 0 m 41.25059˚ 69.25911˚ - 0 nm - -
UTSB FIX - 0 ft / 0 m 39.77500˚ 64.48333˚ 235 nm 235 nm 249° / 246° -
O UTSB APT - 0 ft / 0 m 39.76167˚ 64.48000˚ 0 nm 236 nm 191° / 191° -

Altitude Profile

Advertisement - Login to hide

Weather


0- 5 10 15 20 25 30 35+ Temperature / ° C

Clouds and Precipitation
Forecast for 2017-12-11 06:00 UTC. Updated 2 hours ago

Ground ~20,000 ft ~40,000 ft Winds

UTTT

Details ICAO UTTT (TAS)
Name Yuzhny
Region Tajikistan, Turkmenistan and Uzbekistan
Timezone Asia/Tashkent (UTC+5.0)
Stats Elevation 1,417 ft / 432 m (AMSL)
Location 41.255517° 69.281646°
Runways 2
Magnetic Variation 5.401° E

METAR

UTTT 110230Z 31004KT CAVOK M02/M05 Q1025 R08R/CLRD70 NOSIG

Decode

TAF

TAF UTTT 102300Z 1100/1124 35008KT 7000 NSC TEMPO 1100/1104 VRB02KT 3000 BR FU

Decode

Departure Runways

ID Width Length Bearing (true) Bearing (mag) Surface Threshold Offset Overrun Length
08L 197 ft / 60 m 13,135 ft / 4,004 m 76.98° 71.58° Concrete 820 ft / 250 m 0 ft / 0 m
08R 148 ft / 45 m 12,824 ft / 3,909 m 76.99° 71.59° Asphalt 650 ft / 198 m 0 ft / 0 m
26L 148 ft / 45 m 12,824 ft / 3,909 m 257.02° 251.62° Asphalt 680 ft / 207 m 0 ft / 0 m
26R 197 ft / 60 m 13,135 ft / 4,004 m 257.02° 251.62° Concrete 820 ft / 250 m 0 ft / 0 m

UTSB

Details ICAO UTSB (BHK)
Name BUKHARA
Region Tajikistan, Turkmenistan and Uzbekistan
Timezone Asia/Samarkand (UTC+5.0)
Stats Elevation 751 ft / 229 m (AMSL)
Location 39.775000° 64.483334°
Runways 1
Magnetic Variation 5.242° E

METAR

UTSB 110230Z 33004KT 8000 NSC M05/M06 Q1024 R01/CLRD70 NOSIG

Decode

TAF

TAF UTSB 102300Z 1100/1124 VRB03KT 4500 BR BKN005 TEMPO 1100/1104 0500 FZFG VV002 BECMG 1104/1106 7000 FEW033

Decode

Destination Runways

ID Width Length Bearing (true) Bearing (mag) Surface Threshold Offset Overrun Length
01 147 ft / 45 m 9,909 ft / 3,020 m 10.87° 5.63° Asphalt 0 ft / 0 m 177 ft / 54 m
19 147 ft / 45 m 9,909 ft / 3,020 m 190.88° 185.64° Asphalt 0 ft / 0 m 177 ft / 54 m

Approach Navaids

Runway Type Ident Frequency Range Bearing (true) Bearing (mag) Slope Elevation
01 Localiser IUH 110.30 MHz 18 nm / 33 km 10.88° 5.63° - 753 ft / 230 m (AMSL)
01 Glidescope IUH 110.30 MHz 10 nm / 19 km 10.88° 5.63° 3.00° 736 ft / 224 m (AMSL)

Popular Alternatives